Doug C. — WTX4517 — position and weather

sailwx.info

Track history (hours):
 
Tides and Currents Weather Stations Pressure Air Temp Water Temp Dewpoint Dewpoint Depression Visibility Wind Speed Wind Dir Waves Ship Positions

Doug C.

Owner: C & C BOATS INC, HUNTINGTON BEACH, CA. More information available from US FCC via Universal Licensing System and Coast Guard Vessel Documentation Center.

Last reported at 2017-Dec-12 22:11 UTC. Time now 2018-Feb-21 07:02 UTC.
Position N 34°14' W 119°16'.
Warning: this ship's position is months out of date.

Length 22 m.

Type: Passenger vessel. MMSI: 367090830.

Date/timePositionNaut miles runAvg speedWind from/ knotsBaromVisibWave heightAir tempDewpointWater temp
2017-Dec-12 22:11N 34°14' W 119°16'1 3.0
2017-Dec-12 21:59N 34°15' W 119°16'814.7
2017-Dec-12 21:25N 34°17' W 119°26'815.5
2017-Dec-12 20:55N 34°18' W 119°35'1015.8
2017-Dec-12 20:16N 34°21' W 119°47'414.9
2017-Dec-12 19:59N 34°22' W 119°52'4 8.6
2017-Dec-12 19:30N 34°25' W 119°55'0 0.2
2017-Dec-12 18:13N 34°26' W 119°55'0 0.0
2017-Dec-12 17:52N 34°26' W 119°55'0 0.1
2017-Dec-12 17:29N 34°26' W 119°55'0 0.0
2017-Dec-12 16:48N 34°26' W 119°55'0 1.6
2017-Dec-12 16:30N 34°25' W 119°56'2 3.7
2017-Dec-12 16:00N 34°23' W 119°55'0 0.0
2017-Dec-12 15:30N 34°23' W 119°55'2 4.4
2017-Dec-12 14:59N 34°26' W 119°55'2 4.0
2017-Dec-12 14:25N 34°23' W 119°55'2 4.5
2017-Dec-12 14:00N 34°25' W 119°56'1 1.4
2017-Dec-12 13:26N 34°26' W 119°55'0 0.0
2017-Dec-12 03:14N 34°26' W 119°55'0 0.0
2017-Dec-12 02:56N 34°26' W 119°55'0 0.5
2017-Dec-12 02:28N 34°26' W 119°55'2 3.9
2017-Dec-12 01:58N 34°24' W 119°55'2 0.6
2017-Dec-11 23:21N 34°26' W 119°55'0 0.0
2017-Dec-11 23:00N 34°26' W 119°55'2 3.2
2017-Dec-11 22:19N 34°24' W 119°54'0 0.6
2017-Dec-11 21:52N 34°23' W 119°55'2 2.6
2017-Dec-11 21:08N 34°25' W 119°56'1 0.3
2017-Dec-11 19:01N 34°26' W 119°55'0 0.0
2017-Dec-11 18:34N 34°26' W 119°55'0 0.0
2017-Dec-11 18:28N 34°26' W 119°55'0 0.0
2017-Dec-11 17:04N 34°26' W 119°55'0 0.0
2017-Dec-11 16:58N 34°26' W 119°55'0 0.0
2017-Dec-11 16:16N 34°26' W 119°55'0 0.0
2017-Dec-11 15:58N 34°26' W 119°55'0 0.0
2017-Dec-11 14:31N 34°26' W 119°55'0 2.0
2017-Dec-11 14:23N 34°26' W 119°55'2 6.5
2017-Dec-11 14:00N 34°23' W 119°55'2 1.7
2017-Dec-11 12:44N 34°26' W 119°55'0 0.0
2017-Dec-11 03:11N 34°26' W 119°55'0 0.0
2017-Dec-11 02:50N 34°26' W 119°55'0 0.0
2017-Dec-11 02:21N 34°26' W 119°55'0 0.4
2017-Dec-11 01:56N 34°26' W 119°55'0 0.2
2017-Dec-11 00:55N 34°26' W 119°55'0 0.0
2017-Dec-11 00:10N 34°26' W 119°55'0 0.0
2017-Dec-10 23:55N 34°26' W 119°55'0 0.0
2017-Dec-10 22:00N 34°26' W 119°55'0 0.0
2017-Dec-10 21:27N 34°26' W 119°55'0 0.0
2017-Dec-10 20:06N 34°26' W 119°55'0 0.0
2017-Dec-10 18:39N 34°26' W 119°55'0 0.0
2017-Dec-10 18:30N 34°26' W 119°55'0 0.0
2017-Dec-10 16:21N 34°26' W 119°55'0 0.0
2017-Dec-10 16:00N 34°26' W 119°55'0 0.0
2017-Dec-10 15:18N 34°26' W 119°55'0 0.0
2017-Dec-10 14:51N 34°26' W 119°55'0 0.1
2017-Dec-10 14:17N 34°26' W 119°55'1 4.0
2017-Dec-10 13:55N 34°24' W 119°55'1 0.5
2017-Dec-10 10:47N 34°26' W 119°55'0 0.0
2017-Dec-10 06:08N 34°26' W 119°55'0 0.0
2017-Dec-10 05:50N 34°26' W 119°55'0 0.0
2017-Dec-10 05:20N 34°26' W 119°55'0 0.0
2017-Dec-10 04:47N 34°26' W 119°55'0 0.0
2017-Dec-10 02:26N 34°26' W 119°55'0 0.0
2017-Dec-10 01:54N 34°26' W 119°55'2 4.0
2017-Dec-10 01:29N 34°24' W 119°55'2 1.6
2017-Dec-10 00:29N 34°26' W 119°55'0 0.0
2017-Dec-09 23:56N 34°26' W 119°55'0 0.0
2017-Dec-09 23:23N 34°26' W 119°55'0 0.0
2017-Dec-09 22:53N 34°26' W 119°55'0 0.0
2017-Dec-09 22:29N 34°26' W 119°55'0 0.0
2017-Dec-09 19:32N 34°26' W 119°55'0 0.0
2017-Dec-09 19:20N 34°26' W 119°55'0 0.0
2017-Dec-09 17:11N 34°26' W 119°55'0 0.0
2017-Dec-09 14:41N 34°26' W 119°55'0 0.6
2017-Dec-09 14:19N 34°25' W 119°56'1 2.3
2017-Dec-09 13:53N 34°24' W 119°56'1 0.3
2017-Dec-09 09:47N 34°26' W 119°55'0 0.0
2017-Dec-09 09:23N 34°26' W 119°55'0 0.0
2017-Dec-09 08:47N 34°26' W 119°55'0 0.0
2017-Dec-09 08:05N 34°26' W 119°55'0 0.0
2017-Dec-09 06:47N 34°26' W 119°55'0 0.0
2017-Dec-09 06:29N 34°26' W 119°55'0 0.0
2017-Dec-09 05:59N 34°26' W 119°55'0 0.0
2017-Dec-09 01:56N 34°26' W 119°55'1 2.8
2017-Dec-09 01:27N 34°24' W 119°55'1 0.9
2017-Dec-08 23:55N 34°26' W 119°55'0 0.0
2017-Dec-08 21:28N 34°26' W 119°55'0 0.0
2017-Dec-08 19:28N 34°26' W 119°55'0 0.0
2017-Dec-08 18:58N 34°26' W 119°55'0 0.0
2017-Dec-08 14:55N 34°26' W 119°55'0 0.0
2017-Dec-08 14:28N 34°26' W 119°55'1 2.8
2017-Dec-08 13:56N 34°24' W 119°55'1 2.9
2017-Dec-08 13:25N 34°26' W 119°55'0 0.0
2017-Dec-08 06:09N 34°26' W 119°55'0 0.0
2017-Dec-08 03:46N 34°26' W 119°55'0 0.0
2017-Dec-08 02:02N 34°26' W 119°55'0 1.5
2017-Dec-08 02:00N 34°26' W 119°55'0 0.5
2017-Dec-08 01:24N 34°25' W 119°56'0 0.1
2017-Dec-07 22:39N 34°26' W 119°55'0 0.0
2017-Dec-07 21:17N 34°26' W 119°55'0 0.0
2017-Dec-07 18:47N 34°26' W 119°55'0 0.0
2017-Dec-07 18:20N 34°26' W 119°55'0 0.0
2017-Dec-07 17:56N 34°26' W 119°55'0 0.0
2017-Dec-07 17:29N 34°26' W 119°55'1 2.7
2017-Dec-07 16:56N 34°24' W 119°55'2 2.7
2017-Dec-07 16:17N 34°26' W 119°55'0 0.0
2017-Dec-07 16:00N 34°26' W 119°55'0 0.2
2017-Dec-07 14:45N 34°26' W 119°55'0 0.0
2017-Dec-07 14:30N 34°26' W 119°55'2 4.6
2017-Dec-07 14:00N 34°23' W 119°54'2 0.7
2017-Dec-07 10:34N 34°26' W 119°55'0 0.0
2017-Dec-07 08:28N 34°26' W 119°55'0 0.0
2017-Dec-07 07:58N 34°26' W 119°55'0 0.0
2017-Dec-07 03:10N 34°26' W 119°55'0 0.0
2017-Dec-07 02:52N 34°26' W 119°55'0 0.0
2017-Dec-07 02:23N 34°26' W 119°55'2 5.9
2017-Dec-07 02:00N 34°23' W 119°54'2 0.8
2017-Dec-06 23:04N 34°26' W 119°55'  
2017-Dec-04 09:40N 34°26' W 119°55'0 0.0
2017-Dec-04 09:25N 34°26' W 119°55'0 0.0
2017-Dec-04 05:10N 34°26' W 119°55'0 0.0
2017-Dec-04 04:52N 34°26' W 119°55'0 0.0
2017-Dec-04 02:20N 34°26' W 119°55'2 6.1
2017-Dec-04 01:58N 34°23' W 119°54'2 0.6
2017-Dec-03 21:48N 34°26' W 119°55'0 0.0
2017-Dec-03 21:27N 34°26' W 119°55'0 0.0
2017-Dec-03 21:00N 34°26' W 119°55'0 0.0
2017-Dec-03 20:21N 34°26' W 119°55'2 3.8
2017-Dec-03 19:45N 34°23' W 119°54'2 2.1
2017-Dec-03 18:40N 34°26' W 119°55'0 0.0
2017-Dec-03 18:25N 34°26' W 119°55'0 0.0
2017-Dec-03 14:33N 34°26' W 119°55'1 3.1
2017-Dec-03 14:19N 34°25' W 119°56'2 5.3
2017-Dec-03 13:58N 34°23' W 119°54'2 0.7
2017-Dec-03 10:50N 34°26' W 119°55'0 0.0
2017-Dec-03 10:23N 34°26' W 119°55'0 0.0
2017-Dec-03 08:59N 34°26' W 119°55'0 0.0
2017-Dec-03 08:29N 34°26' W 119°55'0 0.0
2017-Dec-03 07:38N 34°26' W 119°55'0 0.0
2017-Dec-03 07:26N 34°26' W 119°55'0 0.0
2017-Dec-03 06:11N 34°26' W 119°55'0 0.0
2017-Dec-03 05:44N 34°26' W 119°55'0 0.0
2017-Dec-03 05:14N 34°26' W 119°55'0 0.0
2017-Dec-03 04:56N 34°26' W 119°55'0 0.0
2017-Dec-03 04:17N 34°26' W 119°55'0 0.0
2017-Dec-03 03:47N 34°26' W 119°55'0 0.0
2017-Dec-03 03:26N 34°26' W 119°55'0 0.0
2017-Dec-03 02:25N 34°26' W 119°55'1 2.0
2017-Dec-03 01:53N 34°25' W 119°56'1 2.8
2017-Dec-03 01:30N 34°26' W 119°55'  
Track history (hours):
 
Tides and Currents Weather Stations Pressure Air Temp Water Temp Dewpoint Dewpoint Depression Visibility Wind Speed Wind Dir Waves Ship Positions

Doug C.

Owner: C & C BOATS INC, HUNTINGTON BEACH, CA. More information available from US FCC via Universal Licensing System and Coast Guard Vessel Documentation Center.

Last reported at 2017-Dec-12 22:11 UTC. Time now 2018-Feb-21 07:02 UTC.
Position N 34°14' W 119°16'.
Warning: this ship's position is months out of date.

Length 22 m.

Type: Passenger vessel. MMSI: 367090830.

Date/timePositionNaut miles runAvg speedWind from/ knotsBaromVisibWave heightAir tempDewpointWater temp
2017-Dec-12 22:11N 34°14' W 119°16'1 3.0
2017-Dec-12 21:59N 34°15' W 119°16'814.7
2017-Dec-12 21:25N 34°17' W 119°26'815.5
2017-Dec-12 20:55N 34°18' W 119°35'1015.8
2017-Dec-12 20:16N 34°21' W 119°47'414.9
2017-Dec-12 19:59N 34°22' W 119°52'4 8.6
2017-Dec-12 19:30N 34°25' W 119°55'0 0.2
2017-Dec-12 18:13N 34°26' W 119°55'0 0.0
2017-Dec-12 17:52N 34°26' W 119°55'0 0.1
2017-Dec-12 17:29N 34°26' W 119°55'0 0.0
2017-Dec-12 16:48N 34°26' W 119°55'0 1.6
2017-Dec-12 16:30N 34°25' W 119°56'2 3.7
2017-Dec-12 16:00N 34°23' W 119°55'0 0.0
2017-Dec-12 15:30N 34°23' W 119°55'2 4.4
2017-Dec-12 14:59N 34°26' W 119°55'2 4.0
2017-Dec-12 14:25N 34°23' W 119°55'2 4.5
2017-Dec-12 14:00N 34°25' W 119°56'1 1.4
2017-Dec-12 13:26N 34°26' W 119°55'0 0.0
2017-Dec-12 03:14N 34°26' W 119°55'0 0.0
2017-Dec-12 02:56N 34°26' W 119°55'0 0.5
2017-Dec-12 02:28N 34°26' W 119°55'2 3.9
2017-Dec-12 01:58N 34°24' W 119°55'2 0.6
2017-Dec-11 23:21N 34°26' W 119°55'0 0.0
2017-Dec-11 23:00N 34°26' W 119°55'2 3.2
2017-Dec-11 22:19N 34°24' W 119°54'0 0.6
2017-Dec-11 21:52N 34°23' W 119°55'2 2.6
2017-Dec-11 21:08N 34°25' W 119°56'1 0.3
2017-Dec-11 19:01N 34°26' W 119°55'0 0.0
2017-Dec-11 18:34N 34°26' W 119°55'0 0.0
2017-Dec-11 18:28N 34°26' W 119°55'0 0.0
2017-Dec-11 17:04N 34°26' W 119°55'0 0.0
2017-Dec-11 16:58N 34°26' W 119°55'0 0.0
2017-Dec-11 16:16N 34°26' W 119°55'0 0.0
2017-Dec-11 15:58N 34°26' W 119°55'0 0.0
2017-Dec-11 14:31N 34°26' W 119°55'0 2.0
2017-Dec-11 14:23N 34°26' W 119°55'2 6.5
2017-Dec-11 14:00N 34°23' W 119°55'2 1.7
2017-Dec-11 12:44N 34°26' W 119°55'0 0.0
2017-Dec-11 03:11N 34°26' W 119°55'0 0.0
2017-Dec-11 02:50N 34°26' W 119°55'0 0.0
2017-Dec-11 02:21N 34°26' W 119°55'0 0.4
2017-Dec-11 01:56N 34°26' W 119°55'0 0.2
2017-Dec-11 00:55N 34°26' W 119°55'0 0.0
2017-Dec-11 00:10N 34°26' W 119°55'0 0.0
2017-Dec-10 23:55N 34°26' W 119°55'0 0.0
2017-Dec-10 22:00N 34°26' W 119°55'0 0.0
2017-Dec-10 21:27N 34°26' W 119°55'0 0.0
2017-Dec-10 20:06N 34°26' W 119°55'0 0.0
2017-Dec-10 18:39N 34°26' W 119°55'0 0.0
2017-Dec-10 18:30N 34°26' W 119°55'0 0.0
2017-Dec-10 16:21N 34°26' W 119°55'0 0.0
2017-Dec-10 16:00N 34°26' W 119°55'0 0.0
2017-Dec-10 15:18N 34°26' W 119°55'0 0.0
2017-Dec-10 14:51N 34°26' W 119°55'0 0.1
2017-Dec-10 14:17N 34°26' W 119°55'1 4.0
2017-Dec-10 13:55N 34°24' W 119°55'1 0.5
2017-Dec-10 10:47N 34°26' W 119°55'0 0.0
2017-Dec-10 06:08N 34°26' W 119°55'0 0.0
2017-Dec-10 05:50N 34°26' W 119°55'0 0.0
2017-Dec-10 05:20N 34°26' W 119°55'0 0.0
2017-Dec-10 04:47N 34°26' W 119°55'0 0.0
2017-Dec-10 02:26N 34°26' W 119°55'0 0.0
2017-Dec-10 01:54N 34°26' W 119°55'2 4.0
2017-Dec-10 01:29N 34°24' W 119°55'2 1.6
2017-Dec-10 00:29N 34°26' W 119°55'0 0.0
2017-Dec-09 23:56N 34°26' W 119°55'0 0.0
2017-Dec-09 23:23N 34°26' W 119°55'0 0.0
2017-Dec-09 22:53N 34°26' W 119°55'0 0.0
2017-Dec-09 22:29N 34°26' W 119°55'0 0.0
2017-Dec-09 19:32N 34°26' W 119°55'0 0.0
2017-Dec-09 19:20N 34°26' W 119°55'0 0.0
2017-Dec-09 17:11N 34°26' W 119°55'0 0.0
2017-Dec-09 14:41N 34°26' W 119°55'0 0.6
2017-Dec-09 14:19N 34°25' W 119°56'1 2.3
2017-Dec-09 13:53N 34°24' W 119°56'1 0.3
2017-Dec-09 09:47N 34°26' W 119°55'0 0.0
2017-Dec-09 09:23N 34°26' W 119°55'0 0.0
2017-Dec-09 08:47N 34°26' W 119°55'0 0.0
2017-Dec-09 08:05N 34°26' W 119°55'0 0.0
2017-Dec-09 06:47N 34°26' W 119°55'0 0.0
2017-Dec-09 06:29N 34°26' W 119°55'0 0.0
2017-Dec-09 05:59N 34°26' W 119°55'0 0.0
2017-Dec-09 01:56N 34°26' W 119°55'1 2.8
2017-Dec-09 01:27N 34°24' W 119°55'1 0.9
2017-Dec-08 23:55N 34°26' W 119°55'0 0.0
2017-Dec-08 21:28N 34°26' W 119°55'0 0.0
2017-Dec-08 19:28N 34°26' W 119°55'0 0.0
2017-Dec-08 18:58N 34°26' W 119°55'0 0.0
2017-Dec-08 14:55N 34°26' W 119°55'0 0.0
2017-Dec-08 14:28N 34°26' W 119°55'1 2.8
2017-Dec-08 13:56N 34°24' W 119°55'1 2.9
2017-Dec-08 13:25N 34°26' W 119°55'0 0.0
2017-Dec-08 06:09N 34°26' W 119°55'0 0.0
2017-Dec-08 03:46N 34°26' W 119°55'0 0.0
2017-Dec-08 02:02N 34°26' W 119°55'0 1.5
2017-Dec-08 02:00N 34°26' W 119°55'0 0.5
2017-Dec-08 01:24N 34°25' W 119°56'0 0.1
2017-Dec-07 22:39N 34°26' W 119°55'0 0.0
2017-Dec-07 21:17N 34°26' W 119°55'0 0.0
2017-Dec-07 18:47N 34°26' W 119°55'0 0.0
2017-Dec-07 18:20N 34°26' W 119°55'0 0.0
2017-Dec-07 17:56N 34°26' W 119°55'0 0.0
2017-Dec-07 17:29N 34°26' W 119°55'1 2.7
2017-Dec-07 16:56N 34°24' W 119°55'2 2.7
2017-Dec-07 16:17N 34°26' W 119°55'0 0.0
2017-Dec-07 16:00N 34°26' W 119°55'0 0.2
2017-Dec-07 14:45N 34°26' W 119°55'0 0.0
2017-Dec-07 14:30N 34°26' W 119°55'2 4.6
2017-Dec-07 14:00N 34°23' W 119°54'2 0.7
2017-Dec-07 10:34N 34°26' W 119°55'0 0.0
2017-Dec-07 08:28N 34°26' W 119°55'0 0.0
2017-Dec-07 07:58N 34°26' W 119°55'0 0.0
2017-Dec-07 03:10N 34°26' W 119°55'0 0.0
2017-Dec-07 02:52N 34°26' W 119°55'0 0.0
2017-Dec-07 02:23N 34°26' W 119°55'2 5.9
2017-Dec-07 02:00N 34°23' W 119°54'2 0.8
2017-Dec-06 23:04N 34°26' W 119°55'  
2017-Dec-04 09:40N 34°26' W 119°55'0 0.0
2017-Dec-04 09:25N 34°26' W 119°55'0 0.0
2017-Dec-04 05:10N 34°26' W 119°55'0 0.0
2017-Dec-04 04:52N 34°26' W 119°55'0 0.0
2017-Dec-04 02:20N 34°26' W 119°55'2 6.1
2017-Dec-04 01:58N 34°23' W 119°54'2 0.6
2017-Dec-03 21:48N 34°26' W 119°55'0 0.0
2017-Dec-03 21:27N 34°26' W 119°55'0 0.0
2017-Dec-03 21:00N 34°26' W 119°55'0 0.0
2017-Dec-03 20:21N 34°26' W 119°55'2 3.8
2017-Dec-03 19:45N 34°23' W 119°54'2 2.1
2017-Dec-03 18:40N 34°26' W 119°55'0 0.0
2017-Dec-03 18:25N 34°26' W 119°55'0 0.0
2017-Dec-03 14:33N 34°26' W 119°55'1 3.1
2017-Dec-03 14:19N 34°25' W 119°56'2 5.3
2017-Dec-03 13:58N 34°23' W 119°54'2 0.7
2017-Dec-03 10:50N 34°26' W 119°55'0 0.0
2017-Dec-03 10:23N 34°26' W 119°55'0 0.0
2017-Dec-03 08:59N 34°26' W 119°55'0 0.0
2017-Dec-03 08:29N 34°26' W 119°55'0 0.0
2017-Dec-03 07:38N 34°26' W 119°55'0 0.0
2017-Dec-03 07:26N 34°26' W 119°55'0 0.0
2017-Dec-03 06:11N 34°26' W 119°55'0 0.0
2017-Dec-03 05:44N 34°26' W 119°55'0 0.0
2017-Dec-03 05:14N 34°26' W 119°55'0 0.0
2017-Dec-03 04:56N 34°26' W 119°55'0 0.0
2017-Dec-03 04:17N 34°26' W 119°55'0 0.0
2017-Dec-03 03:47N 34°26' W 119°55'0 0.0
2017-Dec-03 03:26N 34°26' W 119°55'0 0.0
2017-Dec-03 02:25N 34°26' W 119°55'1 2.0
2017-Dec-03 01:53N 34°25' W 119°56'1 2.8
2017-Dec-03 01:30N 34°26' W 119°55'  

Dump ship's entire track history